createdAt,value
2022-10-19T00:01:06.596Z,68.16
2022-10-19T00:03:35.412Z,68.67
2022-10-19T00:06:26.063Z,68.85
2022-10-19T00:08:54.241Z,68.74
2022-10-19T00:11:21.483Z,68.77
2022-10-19T00:13:48.514Z,68.81
2022-10-19T00:16:18.453Z,68.89
2022-10-19T00:18:45.916Z,68.83
2022-10-19T00:21:16.707Z,68.70
2022-10-19T00:23:44.208Z,69.01
2022-10-19T00:26:12.662Z,68.76
2022-10-19T00:28:39.878Z,68.49
2022-10-19T00:31:09.879Z,68.56
2022-10-19T00:33:37.170Z,68.62
2022-10-19T00:36:05.520Z,68.97
2022-10-19T00:38:32.687Z,68.63
2022-10-19T00:40:59.708Z,68.66
2022-10-19T00:43:30.673Z,68.71
2022-10-19T00:45:57.869Z,68.77
2022-10-19T00:48:30.104Z,68.65
2022-10-19T00:51:00.196Z,68.74
2022-10-19T00:53:30.640Z,68.70
2022-10-19T00:56:02.997Z,68.66
2022-10-19T00:58:30.619Z,68.52
2022-10-19T01:01:01.698Z,68.42
2022-10-19T01:03:29.100Z,68.40
2022-10-19T01:05:56.353Z,68.24
2022-10-19T01:08:24.097Z,68.25
2022-10-19T01:11:15.073Z,68.21
2022-10-19T01:14:04.111Z,68.11
2022-10-19T01:16:42.922Z,68.08
2022-10-19T01:19:21.979Z,68.06
2022-10-19T01:21:58.435Z,67.85
2022-10-19T01:25:11.567Z,68.33
2022-10-19T01:27:49.401Z,68.29
2022-10-19T01:30:38.061Z,67.92
2022-10-19T01:33:12.031Z,68.14
2022-10-19T01:35:55.949Z,67.63
2022-10-19T01:38:45.195Z,68.02
2022-10-19T01:41:37.610Z,67.57
2022-10-19T01:44:14.186Z,67.73
2022-10-19T01:46:50.012Z,67.61
2022-10-19T01:49:32.928Z,67.56
2022-10-19T01:52:05.000Z,67.35
2022-10-19T01:54:38.682Z,67.46
2022-10-19T01:57:08.990Z,67.42
2022-10-19T01:59:37.501Z,67.27
2022-10-19T02:02:09.246Z,67.30
2022-10-19T02:04:38.484Z,67.01
2022-10-19T02:07:08.616Z,67.19
2022-10-19T02:09:36.195Z,66.91
2022-10-19T02:12:08.866Z,66.85
2022-10-19T02:14:42.916Z,66.78
2022-10-19T02:17:14.197Z,67.18
2022-10-19T02:19:41.881Z,66.69
2022-10-19T02:22:10.073Z,66.58
2022-10-19T02:24:37.262Z,66.89
2022-10-19T02:27:05.731Z,66.83
2022-10-19T02:29:34.146Z,67.02
2022-10-19T02:32:02.406Z,66.93
2022-10-19T02:34:30.474Z,66.98
2022-10-19T02:36:58.168Z,66.83
2022-10-19T02:39:25.549Z,67.01
2022-10-19T02:42:18.049Z,66.98
2022-10-19T02:44:44.996Z,67.13
2022-10-19T02:47:33.943Z,67.16
2022-10-19T02:50:04.381Z,67.51
2022-10-19T02:52:31.564Z,67.43
2022-10-19T02:54:58.796Z,67.49
2022-10-19T02:57:26.350Z,68.17
2022-10-19T02:59:53.822Z,68.16
2022-10-19T03:02:21.590Z,68.11
2022-10-19T03:04:48.787Z,68.11
2022-10-19T03:07:18.095Z,68.16
2022-10-19T03:09:45.656Z,68.67
2022-10-19T03:12:14.162Z,68.65
2022-10-19T03:14:41.359Z,68.59
2022-10-19T03:17:09.106Z,68.69
2022-10-19T03:19:37.122Z,68.40
2022-10-19T03:22:04.779Z,68.37
2022-10-19T03:24:31.913Z,68.57
2022-10-19T03:26:58.893Z,68.58
2022-10-19T03:29:26.147Z,68.77
2022-10-19T03:31:53.222Z,68.29
2022-10-19T03:34:20.286Z,68.40
2022-10-19T03:36:47.389Z,68.68
2022-10-19T03:39:16.231Z,68.72
2022-10-19T03:41:44.171Z,68.82
2022-10-19T03:44:12.125Z,68.57
2022-10-19T03:46:39.904Z,68.49
2022-10-19T03:49:07.502Z,68.77
2022-10-19T03:51:35.396Z,68.63
2022-10-19T03:54:08.037Z,68.98
2022-10-19T03:56:36.235Z,69.31
2022-10-19T03:59:04.944Z,69.35
2022-10-19T04:01:38.078Z,69.64
2022-10-19T04:04:16.122Z,69.58
2022-10-19T04:06:45.210Z,69.12
2022-10-19T04:09:15.605Z,69.35
2022-10-19T04:11:42.721Z,69.25
2022-10-19T04:14:26.633Z,69.14
2022-10-19T04:17:01.903Z,69.18
2022-10-19T04:19:29.730Z,69.14
2022-10-19T04:21:56.852Z,69.22
2022-10-19T04:24:24.190Z,68.92
2022-10-19T04:26:53.687Z,68.90
2022-10-19T04:29:25.073Z,69.28
2022-10-19T04:31:55.194Z,69.02
2022-10-19T04:34:22.356Z,69.21
2022-10-19T04:36:49.340Z,69.33
2022-10-19T04:39:16.468Z,70.05
2022-10-19T04:41:43.530Z,69.93
2022-10-19T04:44:10.891Z,69.94
2022-10-19T04:46:38.721Z,69.92
2022-10-19T04:49:07.037Z,69.78
2022-10-19T04:51:34.876Z,69.66
2022-10-19T04:54:03.751Z,69.54
2022-10-19T04:56:32.572Z,69.51
2022-10-19T04:59:01.156Z,69.73
2022-10-19T05:01:30.895Z,69.95
2022-10-19T05:04:00.316Z,70.54
2022-10-19T05:06:28.315Z,70.63
2022-10-19T05:08:55.594Z,70.44
2022-10-19T05:11:22.667Z,70.76
2022-10-19T05:13:50.620Z,70.41
2022-10-19T05:16:20.737Z,70.34
2022-10-19T05:18:52.679Z,71.16
2022-10-19T05:21:21.960Z,70.71
2022-10-19T05:23:52.446Z,70.75
2022-10-19T05:26:22.112Z,71.94
2022-10-19T05:28:59.563Z,71.56
2022-10-19T05:31:29.159Z,72.19
2022-10-19T05:33:56.756Z,71.98
2022-10-19T05:36:34.835Z,72.37
2022-10-19T05:39:05.667Z,72.25
2022-10-19T05:41:32.721Z,72.72
2022-10-19T05:44:02.373Z,73.32
2022-10-19T05:46:31.307Z,72.76
2022-10-19T05:48:59.131Z,72.58
2022-10-19T05:51:28.468Z,72.76
2022-10-19T05:53:56.544Z,74.23
2022-10-19T05:56:26.338Z,74.92
2022-10-19T05:58:53.745Z,74.41
2022-10-19T06:01:21.014Z,73.96
2022-10-19T06:03:52.418Z,74.00
2022-10-19T06:06:19.839Z,74.23
2022-10-19T06:08:47.781Z,74.33
2022-10-19T06:11:17.554Z,75.37
2022-10-19T06:13:46.633Z,74.84
2022-10-19T06:16:15.478Z,74.15
2022-10-19T06:18:43.034Z,74.19
2022-10-19T06:21:18.508Z,74.24
2022-10-19T06:23:45.806Z,74.58
2022-10-19T06:26:14.485Z,73.86
2022-10-19T06:28:43.370Z,74.38
2022-10-19T06:31:11.617Z,74.63
2022-10-19T06:33:40.498Z,74.38
2022-10-19T06:36:09.600Z,74.61
2022-10-19T06:38:37.174Z,75.05
2022-10-19T06:41:04.487Z,75.08
2022-10-19T06:43:31.566Z,74.53
2022-10-19T06:45:58.613Z,75.09
2022-10-19T06:48:25.613Z,74.63
2022-10-19T06:51:00.193Z,74.79
2022-10-19T06:53:27.396Z,74.81
2022-10-19T06:55:56.964Z,74.91
2022-10-19T06:58:25.656Z,74.67
2022-10-19T07:01:00.024Z,74.09
2022-10-19T07:03:29.419Z,74.12
2022-10-19T07:06:05.582Z,73.94
2022-10-19T07:08:34.560Z,74.71
2022-10-19T07:11:04.696Z,74.92
2022-10-19T07:13:31.806Z,74.96
2022-10-19T07:16:00.840Z,74.95
2022-10-19T07:18:27.954Z,74.93
2022-10-19T07:20:59.565Z,75.44
2022-10-19T07:23:28.419Z,75.02
2022-10-19T07:26:00.687Z,74.55
2022-10-19T07:28:29.489Z,74.51
2022-10-19T07:30:56.630Z,74.19
2022-10-19T07:33:24.062Z,74.08
2022-10-19T07:35:51.114Z,73.76
2022-10-19T07:38:18.307Z,73.69
2022-10-19T07:40:47.378Z,73.50
2022-10-19T07:43:14.497Z,73.25
2022-10-19T07:45:41.551Z,73.53
2022-10-19T07:48:08.524Z,73.62
2022-10-19T07:50:35.409Z,73.64
2022-10-19T07:53:05.359Z,73.97
2022-10-19T07:55:34.570Z,73.42
2022-10-19T07:58:02.175Z,73.64
2022-10-19T08:00:29.892Z,73.13
2022-10-19T08:03:31.189Z,73.37
2022-10-19T08:05:44.240Z,73.42
2022-10-19T08:08:11.336Z,73.62
2022-10-19T08:10:38.424Z,73.45
2022-10-19T08:13:05.461Z,73.30
2022-10-19T08:15:32.716Z,73.90
2022-10-19T08:18:00.172Z,73.75
2022-10-19T08:20:27.311Z,73.61
2022-10-19T08:22:57.993Z,73.43
2022-10-19T08:25:26.127Z,73.03
2022-10-19T08:27:53.302Z,73.05
2022-10-19T08:30:20.352Z,72.46
2022-10-19T08:32:47.445Z,72.30
2022-10-19T08:35:14.601Z,72.36
2022-10-19T08:37:45.103Z,72.06
2022-10-19T08:40:24.084Z,72.04
2022-10-19T08:43:01.052Z,72.04
2022-10-19T08:45:39.032Z,72.38
2022-10-19T08:48:23.582Z,72.23
2022-10-19T08:50:51.417Z,72.45
2022-10-19T08:53:37.857Z,71.66
2022-10-19T08:56:45.669Z,72.02
2022-10-19T08:59:34.115Z,72.39
2022-10-19T09:02:14.632Z,72.80
2022-10-19T09:04:47.923Z,72.56
2022-10-19T09:07:26.261Z,72.28
2022-10-19T09:10:14.940Z,71.96
2022-10-19T09:12:55.096Z,72.06
2022-10-19T09:15:48.366Z,72.06
2022-10-19T09:18:25.756Z,72.30
2022-10-19T09:21:02.188Z,72.16
2022-10-19T09:23:58.578Z,72.04
2022-10-19T09:26:29.609Z,72.42
2022-10-19T09:29:16.692Z,72.35
2022-10-19T09:31:44.138Z,72.20
2022-10-19T09:34:50.245Z,72.26
2022-10-19T09:37:25.760Z,72.58
2022-10-19T09:39:55.734Z,72.25
2022-10-19T09:42:23.280Z,72.16
2022-10-19T09:44:52.278Z,72.33
2022-10-19T09:47:49.026Z,72.73
2022-10-19T09:50:24.778Z,72.59
2022-10-19T09:53:05.132Z,72.66
2022-10-19T09:55:42.677Z,72.49
2022-10-19T09:58:15.753Z,72.94
2022-10-19T10:00:50.880Z,73.67
2022-10-19T10:03:43.702Z,73.13
2022-10-19T10:06:14.997Z,73.40
2022-10-19T10:08:59.058Z,73.47
2022-10-19T10:11:38.386Z,73.73
2022-10-19T10:14:28.950Z,73.30
2022-10-19T10:17:13.561Z,72.96
2022-10-19T10:20:10.689Z,72.82
2022-10-19T10:22:37.909Z,72.87
2022-10-19T10:25:18.291Z,73.04
2022-10-19T10:27:56.529Z,72.86
2022-10-19T10:30:24.013Z,72.80
2022-10-19T10:32:54.670Z,73.06
2022-10-19T10:35:47.249Z,72.33
2022-10-19T10:38:20.019Z,72.80
2022-10-19T10:41:20.406Z,72.99
2022-10-19T10:44:04.706Z,71.41
2022-10-19T10:46:50.512Z,71.58
2022-10-19T10:49:34.212Z,70.63
2022-10-19T10:52:06.526Z,71.04
2022-10-19T10:54:33.944Z,70.83
2022-10-19T10:57:11.766Z,70.44
2022-10-19T10:59:57.002Z,70.19
2022-10-19T11:02:57.100Z,70.60
2022-10-19T11:05:33.741Z,70.76
2022-10-19T11:08:15.273Z,70.77
2022-10-19T11:10:54.329Z,70.80
2022-10-19T11:13:36.359Z,70.53
2022-10-19T11:16:03.387Z,70.61
2022-10-19T11:18:30.388Z,70.25
2022-10-19T11:21:50.468Z,70.12
2022-10-19T11:24:43.862Z,70.33
2022-10-19T11:27:42.650Z,69.84
2022-10-19T11:30:12.831Z,70.33
2022-10-19T11:32:46.003Z,69.69
2022-10-19T11:35:31.423Z,69.49
2022-10-19T11:38:20.406Z,69.68
2022-10-19T11:41:27.001Z,69.70
2022-10-19T11:44:16.756Z,69.85
2022-10-19T11:46:55.753Z,69.65
2022-10-19T11:49:37.509Z,69.44
2022-10-19T11:52:22.907Z,68.00
2022-10-19T11:55:21.792Z,68.71
2022-10-19T11:58:00.722Z,68.85
2022-10-19T12:00:39.990Z,68.86
2022-10-19T12:03:14.261Z,68.88
2022-10-19T12:06:13.073Z,69.43
2022-10-19T12:08:55.266Z,69.92
2022-10-19T12:12:00.192Z,69.13
2022-10-19T12:14:33.019Z,69.22
2022-10-19T12:17:08.629Z,69.49
2022-10-19T12:19:46.966Z,68.98
2022-10-19T12:22:20.486Z,69.53
2022-10-19T12:24:48.685Z,69.47
2022-10-19T12:27:20.223Z,69.33
2022-10-19T12:29:49.833Z,69.04
2022-10-19T12:32:22.066Z,68.93
2022-10-19T12:35:03.831Z,68.43
2022-10-19T12:37:58.424Z,67.89
2022-10-19T12:40:36.844Z,68.70
2022-10-19T12:43:16.897Z,68.96
2022-10-19T12:46:03.164Z,68.30
2022-10-19T12:48:30.571Z,68.73
2022-10-19T12:51:00.811Z,68.09
2022-10-19T12:53:34.682Z,67.85
2022-10-19T12:56:26.904Z,67.36
2022-10-19T12:59:01.777Z,67.08
2022-10-19T13:01:34.715Z,66.85
2022-10-19T13:04:18.330Z,66.87
2022-10-19T13:07:08.150Z,66.90
2022-10-19T13:09:37.781Z,66.64
2022-10-19T13:12:17.656Z,66.31
2022-10-19T13:14:52.277Z,66.72
2022-10-19T13:17:37.514Z,65.70
2022-10-19T13:20:13.954Z,65.91
2022-10-19T13:23:03.639Z,65.71
2022-10-19T13:25:35.217Z,65.72
2022-10-19T13:28:09.329Z,65.38
2022-10-19T13:30:39.384Z,65.44
2022-10-19T13:33:24.925Z,65.32
2022-10-19T13:36:00.923Z,64.71
2022-10-19T13:38:55.995Z,64.86
2022-10-19T13:41:26.301Z,65.32
2022-10-19T13:44:04.470Z,65.54
2022-10-19T13:46:31.586Z,65.77
2022-10-19T13:49:02.404Z,66.18
2022-10-19T13:51:38.219Z,66.17
2022-10-19T13:54:41.056Z,66.03
2022-10-19T13:57:36.191Z,66.13
2022-10-19T14:00:18.137Z,67.18
2022-10-19T14:02:54.129Z,66.65
2022-10-19T14:05:24.000Z,66.29
2022-10-19T14:08:19.101Z,66.41
2022-10-19T14:11:01.050Z,66.90
2022-10-19T14:13:29.792Z,66.53
2022-10-19T14:16:00.328Z,66.69
2022-10-19T14:18:35.529Z,66.92
2022-10-19T14:21:10.267Z,67.23
2022-10-19T14:23:42.817Z,66.80
2022-10-19T14:26:20.713Z,67.08
2022-10-19T14:28:54.168Z,67.32
2022-10-19T14:31:31.956Z,67.38
2022-10-19T14:34:02.611Z,67.13
2022-10-19T14:36:36.340Z,67.18
2022-10-19T14:39:04.353Z,66.83
2022-10-19T14:41:36.179Z,66.87
2022-10-19T14:44:42.690Z,66.94
2022-10-19T14:47:20.858Z,66.94
2022-10-19T14:49:48.474Z,66.75
2022-10-19T14:52:44.824Z,66.96
2022-10-19T14:55:18.160Z,66.84
2022-10-19T14:57:49.869Z,67.59
2022-10-19T15:03:04.213Z,67.05
2022-10-19T15:05:35.805Z,67.04
2022-10-19T15:08:22.018Z,67.14
2022-10-19T15:10:49.797Z,66.96
2022-10-19T15:13:31.238Z,67.26
2022-10-19T15:15:58.341Z,67.33
2022-10-19T15:18:47.836Z,67.27
2022-10-19T15:21:19.039Z,67.44
2022-10-19T15:23:51.927Z,67.64
2022-10-19T15:26:29.474Z,67.80
2022-10-19T15:29:09.203Z,67.56
2022-10-19T15:31:36.546Z,67.40
2022-10-19T15:34:05.391Z,67.04
2022-10-19T15:36:33.232Z,67.30
2022-10-19T15:39:25.229Z,66.91
2022-10-19T15:41:54.382Z,66.96
2022-10-19T15:44:44.289Z,67.27
2022-10-19T15:47:20.026Z,67.22
2022-10-19T15:49:54.279Z,67.13
2022-10-19T15:52:27.209Z,66.77
2022-10-19T15:54:56.916Z,66.51
2022-10-19T15:57:26.887Z,66.45
2022-10-19T15:59:56.326Z,67.16
2022-10-19T16:02:25.224Z,66.85
2022-10-19T16:04:53.809Z,67.01
2022-10-19T16:07:30.881Z,67.42
2022-10-19T16:09:58.894Z,67.39
2022-10-19T16:12:27.511Z,67.55
2022-10-19T16:14:56.225Z,67.94
2022-10-19T16:17:23.679Z,67.81
2022-10-19T16:19:51.477Z,69.03
2022-10-19T16:22:19.198Z,68.86
2022-10-19T16:24:46.191Z,68.76
2022-10-19T16:27:16.518Z,68.81
2022-10-19T16:29:44.879Z,69.60
2022-10-19T16:32:11.884Z,68.77
2022-10-19T16:34:39.523Z,68.86
2022-10-19T16:37:07.378Z,69.32
2022-10-19T16:39:35.256Z,69.58
2022-10-19T16:42:02.338Z,69.70
2022-10-19T16:44:29.771Z,68.93
2022-10-19T16:46:59.001Z,69.55
2022-10-19T16:49:27.212Z,69.95
2022-10-19T16:51:57.266Z,69.56
2022-10-19T16:54:33.006Z,69.50
2022-10-19T16:57:00.177Z,69.70
2022-10-19T16:59:27.292Z,69.34
2022-10-19T17:01:54.721Z,69.21
2022-10-19T17:04:22.230Z,69.17
2022-10-19T17:06:49.219Z,69.10
2022-10-19T17:12:03.744Z,69.06
2022-10-19T17:14:31.617Z,69.30
2022-10-19T17:16:58.840Z,69.84
2022-10-19T17:19:26.428Z,69.44
2022-10-19T17:21:55.694Z,69.26
2022-10-19T17:24:23.159Z,69.21
2022-10-19T17:26:52.245Z,69.25
2022-10-19T17:29:21.656Z,69.37
2022-10-19T17:31:51.055Z,69.16
2022-10-19T17:34:18.610Z,69.08
2022-10-19T17:36:46.561Z,69.08
2022-10-19T17:39:19.771Z,69.24
2022-10-19T17:41:48.543Z,68.78
2022-10-19T17:44:16.415Z,69.10
2022-10-19T17:46:43.926Z,69.12
2022-10-19T17:49:12.117Z,69.06
2022-10-19T17:51:39.939Z,69.27
2022-10-19T17:54:09.735Z,69.31
2022-10-19T17:56:37.149Z,70.09
2022-10-19T17:59:07.615Z,70.17
2022-10-19T18:01:35.112Z,69.76
2022-10-19T18:04:03.751Z,69.47
2022-10-19T18:06:33.282Z,69.78
2022-10-19T18:09:01.443Z,69.70
2022-10-19T18:11:37.554Z,69.62
2022-10-19T18:14:06.306Z,69.74
2022-10-19T18:16:44.834Z,69.75
2022-10-19T18:19:14.088Z,69.92
2022-10-19T18:21:45.223Z,69.80
2022-10-19T18:24:19.317Z,69.95
2022-10-19T18:26:47.276Z,70.62
2022-10-19T18:29:32.318Z,70.34
2022-10-19T18:32:01.663Z,70.95
2022-10-19T18:34:29.003Z,71.15
2022-10-19T18:36:56.472Z,70.72
2022-10-19T18:39:23.919Z,71.10
2022-10-19T18:41:55.306Z,71.31
2022-10-19T18:44:26.388Z,71.36
2022-10-19T18:46:54.587Z,70.59
2022-10-19T18:49:21.653Z,70.39
2022-10-19T18:51:54.106Z,70.51
2022-10-19T18:54:22.780Z,71.00
2022-10-19T18:56:49.737Z,70.73
2022-10-19T18:59:16.907Z,70.37
2022-10-19T19:01:44.197Z,70.57
2022-10-19T19:04:11.266Z,70.66
2022-10-19T19:06:39.564Z,71.16
2022-10-19T19:09:09.802Z,70.72
2022-10-19T19:11:40.993Z,70.74
2022-10-19T19:14:14.716Z,70.80
2022-10-19T19:16:42.874Z,70.23
2022-10-19T19:19:12.081Z,70.78
2022-10-19T19:21:41.967Z,70.08
2022-10-19T19:24:10.627Z,69.87
2022-10-19T19:26:40.491Z,70.74
2022-10-19T19:29:08.107Z,70.60
2022-10-19T19:31:35.433Z,70.42
2022-10-19T19:34:05.869Z,69.75
2022-10-19T19:36:33.067Z,70.34
2022-10-19T19:39:00.239Z,69.70
2022-10-19T19:41:34.188Z,69.50
2022-10-19T19:44:01.463Z,69.31
2022-10-19T19:46:28.590Z,68.84
2022-10-19T19:49:04.101Z,68.55
2022-10-19T19:51:32.275Z,67.97
2022-10-19T19:53:59.916Z,68.71
2022-10-19T19:56:27.131Z,67.89
2022-10-19T19:58:59.340Z,68.24
2022-10-19T20:01:27.144Z,67.70
2022-10-19T20:03:54.261Z,67.23
2022-10-19T20:06:24.970Z,67.39
2022-10-19T20:08:54.549Z,67.16
2022-10-19T20:11:22.523Z,66.96
2022-10-19T20:13:50.097Z,66.66
2022-10-19T20:16:25.243Z,66.29
2022-10-19T20:19:07.399Z,65.49
2022-10-19T20:21:34.766Z,65.99
2022-10-19T20:24:02.027Z,65.78
2022-10-19T20:26:29.616Z,65.96
2022-10-19T20:28:57.211Z,65.83
2022-10-19T20:31:24.631Z,65.46
2022-10-19T20:33:51.797Z,65.62
2022-10-19T20:36:24.671Z,64.98
2022-10-19T20:38:54.334Z,64.77
2022-10-19T20:41:23.232Z,64.59
2022-10-19T20:43:51.105Z,64.11
2022-10-19T20:46:23.797Z,64.17
2022-10-19T20:48:51.940Z,64.41
2022-10-19T20:51:23.011Z,63.82
2022-10-19T20:53:51.833Z,63.98
2022-10-19T20:56:24.148Z,64.12
2022-10-19T20:58:59.029Z,63.61
2022-10-19T21:01:27.455Z,63.65
2022-10-19T21:03:57.687Z,63.93
2022-10-19T21:06:26.251Z,63.49
2022-10-19T21:08:53.688Z,63.89
2022-10-19T21:11:24.117Z,63.40
2022-10-19T21:13:59.985Z,63.65
2022-10-19T21:16:28.746Z,63.58
2022-10-19T21:18:56.910Z,63.10
2022-10-19T21:21:27.654Z,63.24
2022-10-19T21:23:56.209Z,62.88
2022-10-19T21:26:26.095Z,62.76
2022-10-19T21:28:53.483Z,62.96
2022-10-19T21:31:22.034Z,63.00
2022-10-19T21:33:49.715Z,62.84
2022-10-19T21:36:16.846Z,62.71
2022-10-19T21:38:44.402Z,63.19
2022-10-19T21:41:15.067Z,63.00
2022-10-19T21:43:42.708Z,63.05
2022-10-19T21:46:14.581Z,62.81
2022-10-19T21:48:42.316Z,62.96
2022-10-19T21:51:35.156Z,63.07
2022-10-19T21:54:07.097Z,63.31
2022-10-19T21:56:34.624Z,63.32
2022-10-19T21:59:01.959Z,63.53
2022-10-19T22:01:30.445Z,63.37
2022-10-19T22:03:58.886Z,63.32
2022-10-19T22:06:28.321Z,62.92
2022-10-19T22:08:56.124Z,62.82
2022-10-19T22:11:24.239Z,63.19
2022-10-19T22:14:00.160Z,63.43
2022-10-19T22:16:29.042Z,63.73
2022-10-19T22:18:57.004Z,63.70
2022-10-19T22:21:26.819Z,63.50
2022-10-19T22:23:57.466Z,63.54
2022-10-19T22:26:30.820Z,63.64
2022-10-19T22:28:59.649Z,63.79
2022-10-19T22:31:28.563Z,63.48
2022-10-19T22:33:55.745Z,63.67
2022-10-19T22:36:22.906Z,64.20
2022-10-19T22:38:50.161Z,63.83
2022-10-19T22:41:17.197Z,63.40
2022-10-19T22:43:44.154Z,63.56
2022-10-19T22:46:11.211Z,63.46
2022-10-19T22:48:38.299Z,63.56
2022-10-19T22:51:05.337Z,63.58
2022-10-19T22:53:32.320Z,64.16
2022-10-19T22:55:59.417Z,64.21
2022-10-19T22:58:26.412Z,65.52
2022-10-19T23:01:07.549Z,65.76
2022-10-19T23:03:34.701Z,65.27
2022-10-19T23:06:01.994Z,65.87
2022-10-19T23:08:29.253Z,66.28
2022-10-19T23:10:56.475Z,65.72
2022-10-19T23:13:23.662Z,66.01
2022-10-19T23:15:53.633Z,66.54
2022-10-19T23:18:20.774Z,66.30
2022-10-19T23:20:58.466Z,66.73
2022-10-19T23:23:26.892Z,66.47
2022-10-19T23:26:05.120Z,66.49
2022-10-19T23:28:34.060Z,66.14
2022-10-19T23:31:10.987Z,66.22
2022-10-19T23:33:38.604Z,66.28
2022-10-19T23:36:09.884Z,65.83
2022-10-19T23:38:36.888Z,66.04
2022-10-19T23:41:04.327Z,66.13
2022-10-19T23:43:31.879Z,65.94
2022-10-19T23:45:59.109Z,66.00
2022-10-19T23:48:26.391Z,66.54
2022-10-19T23:50:58.235Z,66.33
2022-10-19T23:53:25.866Z,66.18
2022-10-19T23:55:59.092Z,66.49
2022-10-19T23:58:26.293Z,66.67
